sensor_id;sensor_type;location;lat;lon;timestamp;P1;durP1;ratioP1;P2;durP2;ratioP2
13973;SDS011;7060;43.770;4.008;2022-08-25T00:02:19;5.20;;;3.90;;
13973;SDS011;7060;43.770;4.008;2022-08-25T00:04:49;4.07;;;3.67;;
13973;SDS011;7060;43.770;4.008;2022-08-25T00:07:19;3.87;;;3.17;;
13973;SDS011;7060;43.770;4.008;2022-08-25T00:09:47;4.47;;;3.47;;
13973;SDS011;7060;43.770;4.008;2022-08-25T00:12:16;4.47;;;3.70;;
13973;SDS011;7060;43.770;4.008;2022-08-25T00:14:44;3.80;;;3.40;;
13973;SDS011;7060;43.770;4.008;2022-08-25T00:17:14;7.10;;;3.77;;
13973;SDS011;7060;43.770;4.008;2022-08-25T00:19:42;4.23;;;3.80;;
13973;SDS011;7060;43.770;4.008;2022-08-25T00:22:11;4.30;;;3.10;;
13973;SDS011;7060;43.770;4.008;2022-08-25T00:24:39;4.70;;;4.17;;
13973;SDS011;7060;43.770;4.008;2022-08-25T00:27:07;5.93;;;3.97;;
13973;SDS011;7060;43.770;4.008;2022-08-25T00:29:38;5.97;;;3.67;;
13973;SDS011;7060;43.770;4.008;2022-08-25T00:32:07;5.07;;;3.67;;
13973;SDS011;7060;43.770;4.008;2022-08-25T00:34:37;5.40;;;3.37;;
13973;SDS011;7060;43.770;4.008;2022-08-25T00:37:06;4.47;;;3.67;;
13973;SDS011;7060;43.770;4.008;2022-08-25T00:39:36;4.70;;;3.53;;
13973;SDS011;7060;43.770;4.008;2022-08-25T00:42:07;6.03;;;3.70;;
13973;SDS011;7060;43.770;4.008;2022-08-25T00:44:41;4.63;;;3.70;;
13973;SDS011;7060;43.770;4.008;2022-08-25T00:47:10;4.37;;;3.97;;
13973;SDS011;7060;43.770;4.008;2022-08-25T00:49:41;5.63;;;3.40;;
13973;SDS011;7060;43.770;4.008;2022-08-25T00:52:15;4.13;;;3.80;;
13973;SDS011;7060;43.770;4.008;2022-08-25T00:54:48;4.20;;;3.80;;
13973;SDS011;7060;43.770;4.008;2022-08-25T00:57:21;4.07;;;3.63;;
13973;SDS011;7060;43.770;4.008;2022-08-25T01:00:00;3.97;;;3.57;;
13973;SDS011;7060;43.770;4.008;2022-08-25T01:02:33;4.70;;;3.57;;
13973;SDS011;7060;43.770;4.008;2022-08-25T01:05:03;3.83;;;3.23;;
13973;SDS011;7060;43.770;4.008;2022-08-25T01:07:32;4.93;;;3.60;;
13973;SDS011;7060;43.770;4.008;2022-08-25T01:10:00;4.87;;;3.73;;
13973;SDS011;7060;43.770;4.008;2022-08-25T01:12:30;5.47;;;3.83;;
13973;SDS011;7060;43.770;4.008;2022-08-25T01:14:58;4.00;;;3.60;;
13973;SDS011;7060;43.770;4.008;2022-08-25T01:17:31;5.93;;;3.53;;
13973;SDS011;7060;43.770;4.008;2022-08-25T01:20:00;4.03;;;3.43;;
13973;SDS011;7060;43.770;4.008;2022-08-25T01:22:32;4.43;;;3.90;;
13973;SDS011;7060;43.770;4.008;2022-08-25T01:25:03;5.43;;;3.50;;
13973;SDS011;7060;43.770;4.008;2022-08-25T01:27:36;3.83;;;3.43;;
13973;SDS011;7060;43.770;4.008;2022-08-25T01:30:05;3.93;;;3.53;;
13973;SDS011;7060;43.770;4.008;2022-08-25T01:32:34;3.60;;;3.30;;
13973;SDS011;7060;43.770;4.008;2022-08-25T01:35:02;5.17;;;3.10;;
13973;SDS011;7060;43.770;4.008;2022-08-25T01:37:33;3.80;;;3.27;;
13973;SDS011;7060;43.770;4.008;2022-08-25T01:40:03;4.93;;;3.50;;
13973;SDS011;7060;43.770;4.008;2022-08-25T01:42:37;5.87;;;3.93;;
13973;SDS011;7060;43.770;4.008;2022-08-25T01:45:13;5.53;;;3.27;;
13973;SDS011;7060;43.770;4.008;2022-08-25T01:47:42;3.67;;;3.27;;
13973;SDS011;7060;43.770;4.008;2022-08-25T01:50:10;3.77;;;3.47;;
13973;SDS011;7060;43.770;4.008;2022-08-25T01:52:46;4.77;;;3.60;;
13973;SDS011;7060;43.770;4.008;2022-08-25T01:55:18;3.43;;;3.13;;
13973;SDS011;7060;43.770;4.008;2022-08-25T01:57:47;4.10;;;3.70;;
13973;SDS011;7060;43.770;4.008;2022-08-25T02:00:16;4.27;;;3.43;;
13973;SDS011;7060;43.770;4.008;2022-08-25T02:02:45;3.37;;;3.03;;
13973;SDS011;7060;43.770;4.008;2022-08-25T02:05:21;3.60;;;2.93;;
13973;SDS011;7060;43.770;4.008;2022-08-25T02:07:50;3.70;;;3.23;;
13973;SDS011;7060;43.770;4.008;2022-08-25T02:10:19;3.63;;;3.30;;
13973;SDS011;7060;43.770;4.008;2022-08-25T02:12:48;3.97;;;2.87;;
13973;SDS011;7060;43.770;4.008;2022-08-25T02:15:20;3.30;;;3.03;;
13973;SDS011;7060;43.770;4.008;2022-08-25T02:17:48;3.30;;;3.00;;
13973;SDS011;7060;43.770;4.008;2022-08-25T02:20:16;3.03;;;2.80;;
13973;SDS011;7060;43.770;4.008;2022-08-25T02:22:45;3.80;;;3.00;;
13973;SDS011;7060;43.770;4.008;2022-08-25T02:25:24;3.30;;;3.00;;
13973;SDS011;7060;43.770;4.008;2022-08-25T02:27:52;3.23;;;3.03;;
13973;SDS011;7060;43.770;4.008;2022-08-25T02:30:21;4.80;;;4.27;;
13973;SDS011;7060;43.770;4.008;2022-08-25T02:32:49;3.60;;;3.30;;
13973;SDS011;7060;43.770;4.008;2022-08-25T02:35:18;5.20;;;3.30;;
13973;SDS011;7060;43.770;4.008;2022-08-25T02:37:47;4.40;;;3.67;;
13973;SDS011;7060;43.770;4.008;2022-08-25T02:40:20;5.43;;;3.77;;
13973;SDS011;7060;43.770;4.008;2022-08-25T02:42:50;3.97;;;3.57;;
13973;SDS011;7060;43.770;4.008;2022-08-25T02:45:18;4.90;;;3.67;;
13973;SDS011;7060;43.770;4.008;2022-08-25T02:47:47;3.87;;;3.23;;
13973;SDS011;7060;43.770;4.008;2022-08-25T02:50:15;6.83;;;3.37;;
13973;SDS011;7060;43.770;4.008;2022-08-25T02:52:43;3.90;;;3.50;;
13973;SDS011;7060;43.770;4.008;2022-08-25T02:55:12;3.40;;;3.10;;
13973;SDS011;7060;43.770;4.008;2022-08-25T02:57:40;4.40;;;3.53;;
13973;SDS011;7060;43.770;4.008;2022-08-25T03:00:11;3.83;;;3.43;;
13973;SDS011;7060;43.770;4.008;2022-08-25T03:02:43;4.40;;;3.47;;
13973;SDS011;7060;43.770;4.008;2022-08-25T03:05:13;3.80;;;3.50;;
13973;SDS011;7060;43.770;4.008;2022-08-25T03:07:44;7.77;;;3.70;;
13973;SDS011;7060;43.770;4.008;2022-08-25T03:10:14;3.50;;;3.20;;
13973;SDS011;7060;43.770;4.008;2022-08-25T03:12:44;3.70;;;3.40;;
13973;SDS011;7060;43.770;4.008;2022-08-25T03:15:14;3.97;;;3.47;;
13973;SDS011;7060;43.770;4.008;2022-08-25T03:17:44;4.00;;;3.20;;
13973;SDS011;7060;43.770;4.008;2022-08-25T03:20:16;3.33;;;2.80;;
13973;SDS011;7060;43.770;4.008;2022-08-25T03:22:45;3.60;;;3.30;;
13973;SDS011;7060;43.770;4.008;2022-08-25T03:25:15;5.33;;;3.63;;
13973;SDS011;7060;43.770;4.008;2022-08-25T03:28:02;5.23;;;3.60;;
13973;SDS011;7060;43.770;4.008;2022-08-25T03:30:32;5.23;;;3.13;;
13973;SDS011;7060;43.770;4.008;2022-08-25T03:33:01;4.77;;;4.07;;
13973;SDS011;7060;43.770;4.008;2022-08-25T03:35:29;3.87;;;3.13;;
13973;SDS011;7060;43.770;4.008;2022-08-25T03:37:59;4.10;;;3.70;;
13973;SDS011;7060;43.770;4.008;2022-08-25T03:40:28;4.07;;;3.67;;
13973;SDS011;7060;43.770;4.008;2022-08-25T03:42:57;4.23;;;3.83;;
13973;SDS011;7060;43.770;4.008;2022-08-25T03:45:26;3.30;;;2.90;;
13973;SDS011;7060;43.770;4.008;2022-08-25T03:47:56;3.83;;;3.47;;
13973;SDS011;7060;43.770;4.008;2022-08-25T03:50:25;3.40;;;3.10;;
13973;SDS011;7060;43.770;4.008;2022-08-25T03:52:53;3.93;;;2.90;;
13973;SDS011;7060;43.770;4.008;2022-08-25T03:55:23;2.87;;;2.67;;
13973;SDS011;7060;43.770;4.008;2022-08-25T03:57:54;3.43;;;3.13;;
13973;SDS011;7060;43.770;4.008;2022-08-25T04:00:24;3.20;;;2.90;;
13973;SDS011;7060;43.770;4.008;2022-08-25T04:02:52;6.30;;;3.20;;
13973;SDS011;7060;43.770;4.008;2022-08-25T04:05:22;3.03;;;2.83;;
13973;SDS011;7060;43.770;4.008;2022-08-25T04:07:52;3.47;;;3.17;;
13973;SDS011;7060;43.770;4.008;2022-08-25T04:10:21;3.83;;;3.37;;
13973;SDS011;7060;43.770;4.008;2022-08-25T04:12:49;3.63;;;3.30;;
13973;SDS011;7060;43.770;4.008;2022-08-25T04:15:18;6.07;;;3.17;;
13973;SDS011;7060;43.770;4.008;2022-08-25T04:17:47;4.17;;;3.10;;
13973;SDS011;7060;43.770;4.008;2022-08-25T04:20:17;5.73;;;3.80;;
13973;SDS011;7060;43.770;4.008;2022-08-25T04:22:48;3.37;;;2.73;;
13973;SDS011;7060;43.770;4.008;2022-08-25T04:25:17;6.57;;;3.63;;
13973;SDS011;7060;43.770;4.008;2022-08-25T04:27:45;4.63;;;3.03;;
13973;SDS011;7060;43.770;4.008;2022-08-25T04:30:14;18.00;;;3.80;;
13973;SDS011;7060;43.770;4.008;2022-08-25T04:32:42;3.83;;;3.43;;
13973;SDS011;7060;43.770;4.008;2022-08-25T04:35:10;7.77;;;2.93;;
13973;SDS011;7060;43.770;4.008;2022-08-25T04:37:39;6.93;;;3.57;;
13973;SDS011;7060;43.770;4.008;2022-08-25T04:40:09;4.67;;;4.10;;
13973;SDS011;7060;43.770;4.008;2022-08-25T04:42:38;6.53;;;3.87;;
13973;SDS011;7060;43.770;4.008;2022-08-25T04:45:07;5.17;;;4.07;;
13973;SDS011;7060;43.770;4.008;2022-08-25T04:47:36;4.40;;;3.47;;
13973;SDS011;7060;43.770;4.008;2022-08-25T04:50:06;6.03;;;3.93;;
13973;SDS011;7060;43.770;4.008;2022-08-25T04:52:35;9.83;;;3.73;;
13973;SDS011;7060;43.770;4.008;2022-08-25T04:55:04;6.20;;;3.70;;
13973;SDS011;7060;43.770;4.008;2022-08-25T04:57:34;4.00;;;3.47;;
13973;SDS011;7060;43.770;4.008;2022-08-25T05:00:04;6.50;;;3.23;;
13973;SDS011;7060;43.770;4.008;2022-08-25T05:02:34;4.30;;;3.17;;
13973;SDS011;7060;43.770;4.008;2022-08-25T05:05:02;4.00;;;3.60;;
13973;SDS011;7060;43.770;4.008;2022-08-25T05:07:32;5.60;;;3.17;;
13973;SDS011;7060;43.770;4.008;2022-08-25T05:10:00;10.43;;;3.43;;
13973;SDS011;7060;43.770;4.008;2022-08-25T05:12:28;7.57;;;3.83;;
13973;SDS011;7060;43.770;4.008;2022-08-25T05:14:59;3.57;;;3.00;;
13973;SDS011;7060;43.770;4.008;2022-08-25T05:17:48;6.17;;;3.10;;
13973;SDS011;7060;43.770;4.008;2022-08-25T05:20:21;7.77;;;4.00;;
13973;SDS011;7060;43.770;4.008;2022-08-25T05:22:50;7.00;;;3.60;;
13973;SDS011;7060;43.770;4.008;2022-08-25T05:25:18;7.53;;;3.33;;
13973;SDS011;7060;43.770;4.008;2022-08-25T05:27:47;6.00;;;3.33;;
13973;SDS011;7060;43.770;4.008;2022-08-25T05:30:16;9.40;;;3.53;;
13973;SDS011;7060;43.770;4.008;2022-08-25T05:32:45;7.03;;;3.50;;
13973;SDS011;7060;43.770;4.008;2022-08-25T05:35:13;4.00;;;3.20;;
13973;SDS011;7060;43.770;4.008;2022-08-25T05:37:42;6.80;;;3.90;;
13973;SDS011;7060;43.770;4.008;2022-08-25T05:40:10;5.57;;;4.10;;
13973;SDS011;7060;43.770;4.008;2022-08-25T05:42:39;5.20;;;3.90;;
13973;SDS011;7060;43.770;4.008;2022-08-25T05:45:08;4.37;;;3.93;;
13973;SDS011;7060;43.770;4.008;2022-08-25T05:47:47;4.60;;;4.10;;
13973;SDS011;7060;43.770;4.008;2022-08-25T05:50:16;5.47;;;4.00;;
13973;SDS011;7060;43.770;4.008;2022-08-25T05:52:45;6.17;;;4.17;;
13973;SDS011;7060;43.770;4.008;2022-08-25T05:55:13;6.17;;;4.00;;
13973;SDS011;7060;43.770;4.008;2022-08-25T05:57:42;8.37;;;4.20;;
13973;SDS011;7060;43.770;4.008;2022-08-25T06:00:11;11.90;;;5.43;;
13973;SDS011;7060;43.770;4.008;2022-08-25T06:02:40;8.03;;;4.20;;
13973;SDS011;7060;43.770;4.008;2022-08-25T06:05:12;6.10;;;3.90;;
13973;SDS011;7060;43.770;4.008;2022-08-25T06:07:43;7.43;;;5.33;;
13973;SDS011;7060;43.770;4.008;2022-08-25T06:10:12;7.23;;;4.47;;
13973;SDS011;7060;43.770;4.008;2022-08-25T06:12:42;10.73;;;4.60;;
13973;SDS011;7060;43.770;4.008;2022-08-25T06:15:12;8.07;;;4.63;;
13973;SDS011;7060;43.770;4.008;2022-08-25T06:17:41;6.27;;;4.30;;
13973;SDS011;7060;43.770;4.008;2022-08-25T06:20:13;5.93;;;5.00;;
13973;SDS011;7060;43.770;4.008;2022-08-25T06:22:43;6.10;;;4.37;;
13973;SDS011;7060;43.770;4.008;2022-08-25T06:25:12;6.23;;;5.00;;
13973;SDS011;7060;43.770;4.008;2022-08-25T06:27:43;9.93;;;4.90;;
13973;SDS011;7060;43.770;4.008;2022-08-25T06:30:13;10.70;;;4.80;;
13973;SDS011;7060;43.770;4.008;2022-08-25T06:32:49;7.07;;;4.37;;
13973;SDS011;7060;43.770;4.008;2022-08-25T06:35:19;6.03;;;4.40;;
13973;SDS011;7060;43.770;4.008;2022-08-25T06:37:48;6.80;;;5.70;;
13973;SDS011;7060;43.770;4.008;2022-08-25T06:40:16;8.15;;;6.32;;
13973;SDS011;7060;43.770;4.008;2022-08-25T06:42:46;7.03;;;6.53;;
13973;SDS011;7060;43.770;4.008;2022-08-25T06:45:16;7.20;;;6.63;;
13973;SDS011;7060;43.770;4.008;2022-08-25T06:47:45;7.70;;;7.20;;
13973;SDS011;7060;43.770;4.008;2022-08-25T06:50:13;7.70;;;7.10;;
13973;SDS011;7060;43.770;4.008;2022-08-25T06:52:43;7.72;;;6.88;;
13973;SDS011;7060;43.770;4.008;2022-08-25T06:55:12;6.85;;;6.25;;
13973;SDS011;7060;43.770;4.008;2022-08-25T06:57:41;5.53;;;5.13;;
13973;SDS011;7060;43.770;4.008;2022-08-25T07:00:10;5.72;;;4.95;;
13973;SDS011;7060;43.770;4.008;2022-08-25T07:02:39;5.05;;;4.65;;
13973;SDS011;7060;43.770;4.008;2022-08-25T07:05:08;4.88;;;4.47;;
13973;SDS011;7060;43.770;4.008;2022-08-25T07:07:53;7.65;;;4.40;;
13973;SDS011;7060;43.770;4.008;2022-08-25T07:10:22;5.60;;;3.95;;
13973;SDS011;7060;43.770;4.008;2022-08-25T07:12:51;3.65;;;3.45;;
13973;SDS011;7060;43.770;4.008;2022-08-25T07:15:19;3.85;;;3.55;;
13973;SDS011;7060;43.770;4.008;2022-08-25T07:17:48;4.13;;;3.25;;
13973;SDS011;7060;43.770;4.008;2022-08-25T07:20:17;4.15;;;2.70;;
13973;SDS011;7060;43.770;4.008;2022-08-25T07:22:47;3.83;;;2.80;;
13973;SDS011;7060;43.770;4.008;2022-08-25T07:25:17;3.60;;;2.70;;
13973;SDS011;7060;43.770;4.008;2022-08-25T07:27:46;3.47;;;2.47;;
13973;SDS011;7060;43.770;4.008;2022-08-25T07:30:15;5.22;;;2.40;;
13973;SDS011;7060;43.770;4.008;2022-08-25T07:32:45;2.50;;;2.30;;
13973;SDS011;7060;43.770;4.008;2022-08-25T07:35:20;4.97;;;2.70;;
13973;SDS011;7060;43.770;4.008;2022-08-25T07:37:52;2.50;;;1.83;;
13973;SDS011;7060;43.770;4.008;2022-08-25T07:40:26;3.75;;;2.28;;
13973;SDS011;7060;43.770;4.008;2022-08-25T07:42:57;4.35;;;2.53;;
13973;SDS011;7060;43.770;4.008;2022-08-25T07:45:28;6.15;;;2.60;;
13973;SDS011;7060;43.770;4.008;2022-08-25T07:47:58;3.80;;;2.33;;
13973;SDS011;7060;43.770;4.008;2022-08-25T07:50:28;4.07;;;2.17;;
13973;SDS011;7060;43.770;4.008;2022-08-25T07:52:57;5.07;;;2.30;;
13973;SDS011;7060;43.770;4.008;2022-08-25T07:55:29;5.13;;;2.17;;
13973;SDS011;7060;43.770;4.008;2022-08-25T07:57:57;3.60;;;1.95;;
13973;SDS011;7060;43.770;4.008;2022-08-25T08:00:28;3.17;;;2.22;;
13973;SDS011;7060;43.770;4.008;2022-08-25T08:03:01;2.67;;;2.00;;
13973;SDS011;7060;43.770;4.008;2022-08-25T08:05:30;2.58;;;2.10;;
13973;SDS011;7060;43.770;4.008;2022-08-25T08:07:59;4.13;;;1.85;;
13973;SDS011;7060;43.770;4.008;2022-08-25T08:10:29;3.55;;;2.08;;
13973;SDS011;7060;43.770;4.008;2022-08-25T08:13:18;2.72;;;2.10;;
13973;SDS011;7060;43.770;4.008;2022-08-25T08:15:46;3.00;;;1.90;;
13973;SDS011;7060;43.770;4.008;2022-08-25T08:18:15;3.25;;;2.25;;
13973;SDS011;7060;43.770;4.008;2022-08-25T08:20:44;2.63;;;1.90;;
13973;SDS011;7060;43.770;4.008;2022-08-25T08:23:13;2.00;;;1.80;;
13973;SDS011;7060;43.770;4.008;2022-08-25T08:25:43;2.67;;;2.15;;
13973;SDS011;7060;43.770;4.008;2022-08-25T08:28:11;3.80;;;1.80;;
13973;SDS011;7060;43.770;4.008;2022-08-25T08:30:41;4.82;;;1.90;;
13973;SDS011;7060;43.770;4.008;2022-08-25T08:33:20;3.97;;;1.63;;
13973;SDS011;7060;43.770;4.008;2022-08-25T08:35:57;2.63;;;1.65;;
13973;SDS011;7060;43.770;4.008;2022-08-25T08:38:31;2.05;;;1.83;;
13973;SDS011;7060;43.770;4.008;2022-08-25T08:41:07;1.63;;;1.50;;
13973;SDS011;7060;43.770;4.008;2022-08-25T08:44:22;1.80;;;1.63;;
13973;SDS011;7060;43.770;4.008;2022-08-25T08:46:57;2.63;;;1.88;;
13973;SDS011;7060;43.770;4.008;2022-08-25T08:49:36;6.60;;;1.83;;
13973;SDS011;7060;43.770;4.008;2022-08-25T08:52:13;1.98;;;1.77;;
13973;SDS011;7060;43.770;4.008;2022-08-25T08:54:46;2.15;;;1.50;;
13973;SDS011;7060;43.770;4.008;2022-08-25T08:57:24;3.55;;;1.90;;
13973;SDS011;7060;43.770;4.008;2022-08-25T08:59:56;2.28;;;1.70;;
13973;SDS011;7060;43.770;4.008;2022-08-25T09:02:27;6.13;;;2.08;;
13973;SDS011;7060;43.770;4.008;2022-08-25T09:05:16;6.22;;;2.03;;
13973;SDS011;7060;43.770;4.008;2022-08-25T09:07:47;2.42;;;1.60;;
13973;SDS011;7060;43.770;4.008;2022-08-25T09:10:20;2.40;;;1.63;;
13973;SDS011;7060;43.770;4.008;2022-08-25T09:12:57;1.52;;;1.25;;
13973;SDS011;7060;43.770;4.008;2022-08-25T09:15:40;2.33;;;1.70;;
13973;SDS011;7060;43.770;4.008;2022-08-25T09:18:34;2.40;;;1.50;;
13973;SDS011;7060;43.770;4.008;2022-08-25T09:21:21;2.00;;;1.40;;
13973;SDS011;7060;43.770;4.008;2022-08-25T09:24:02;3.00;;;1.42;;
13973;SDS011;7060;43.770;4.008;2022-08-25T09:26:42;2.83;;;1.50;;
13973;SDS011;7060;43.770;4.008;2022-08-25T09:29:18;1.98;;;1.55;;
13973;SDS011;7060;43.770;4.008;2022-08-25T09:31:50;3.22;;;1.67;;
13973;SDS011;7060;43.770;4.008;2022-08-25T09:34:27;4.57;;;1.23;;
13973;SDS011;7060;43.770;4.008;2022-08-25T09:36:59;1.42;;;1.33;;
13973;SDS011;7060;43.770;4.008;2022-08-25T09:39:28;1.55;;;1.45;;
13973;SDS011;7060;43.770;4.008;2022-08-25T09:41:57;3.05;;;1.17;;
13973;SDS011;7060;43.770;4.008;2022-08-25T09:44:29;2.92;;;1.27;;
13973;SDS011;7060;43.770;4.008;2022-08-25T09:47:01;1.65;;;1.25;;
13973;SDS011;7060;43.770;4.008;2022-08-25T09:49:35;1.73;;;1.42;;
13973;SDS011;7060;43.770;4.008;2022-08-25T09:52:16;1.85;;;1.17;;
13973;SDS011;7060;43.770;4.008;2022-08-25T09:54:51;1.83;;;1.10;;
13973;SDS011;7060;43.770;4.008;2022-08-25T09:57:30;3.33;;;1.23;;
13973;SDS011;7060;43.770;4.008;2022-08-25T10:00:13;1.30;;;1.20;;
13973;SDS011;7060;43.770;4.008;2022-08-25T10:03:02;3.85;;;1.42;;
13973;SDS011;7060;43.770;4.008;2022-08-25T10:05:34;2.70;;;1.40;;
13973;SDS011;7060;43.770;4.008;2022-08-25T10:08:10;1.45;;;1.20;;
13973;SDS011;7060;43.770;4.008;2022-08-25T10:10:52;4.30;;;1.40;;
13973;SDS011;7060;43.770;4.008;2022-08-25T10:13:31;1.83;;;1.33;;
13973;SDS011;7060;43.770;4.008;2022-08-25T10:16:04;1.75;;;1.30;;
13973;SDS011;7060;43.770;4.008;2022-08-25T10:18:58;5.88;;;1.70;;
13973;SDS011;7060;43.770;4.008;2022-08-25T10:21:29;1.60;;;1.33;;
13973;SDS011;7060;43.770;4.008;2022-08-25T10:23:58;3.70;;;1.38;;
13973;SDS011;7060;43.770;4.008;2022-08-25T10:26:31;2.72;;;1.60;;
13973;SDS011;7060;43.770;4.008;2022-08-25T10:29:25;1.70;;;1.40;;
13973;SDS011;7060;43.770;4.008;2022-08-25T10:32:04;2.75;;;1.42;;
13973;SDS011;7060;43.770;4.008;2022-08-25T10:34:42;1.50;;;1.30;;
13973;SDS011;7060;43.770;4.008;2022-08-25T10:37:20;1.92;;;1.40;;
13973;SDS011;7060;43.770;4.008;2022-08-25T10:40:01;1.67;;;1.30;;
13973;SDS011;7060;43.770;4.008;2022-08-25T10:42:38;1.92;;;1.25;;
13973;SDS011;7060;43.770;4.008;2022-08-25T10:45:16;3.92;;;1.17;;
13973;SDS011;7060;43.770;4.008;2022-08-25T10:48:24;1.73;;;1.20;;
13973;SDS011;7060;43.770;4.008;2022-08-25T10:51:00;1.55;;;1.30;;
13973;SDS011;7060;43.770;4.008;2022-08-25T10:53:39;4.15;;;1.55;;
13973;SDS011;7060;43.770;4.008;2022-08-25T10:56:23;2.95;;;1.10;;
13973;SDS011;7060;43.770;4.008;2022-08-25T11:02:12;3.00;;;1.30;;
13973;SDS011;7060;43.770;4.008;2022-08-25T11:04:58;2.53;;;1.42;;
13973;SDS011;7060;43.770;4.008;2022-08-25T11:07:34;2.17;;;1.30;;
13973;SDS011;7060;43.770;4.008;2022-08-25T11:10:19;1.45;;;1.25;;
13973;SDS011;7060;43.770;4.008;2022-08-25T11:12:54;1.77;;;1.10;;
13973;SDS011;7060;43.770;4.008;2022-08-25T11:15:28;4.60;;;1.60;;
13973;SDS011;7060;43.770;4.008;2022-08-25T11:18:02;1.75;;;1.35;;
13973;SDS011;7060;43.770;4.008;2022-08-25T11:20:43;2.95;;;1.88;;
13973;SDS011;7060;43.770;4.008;2022-08-25T11:23:18;1.88;;;1.58;;
13973;SDS011;7060;43.770;4.008;2022-08-25T11:25:53;1.55;;;1.35;;
13973;SDS011;7060;43.770;4.008;2022-08-25T11:28:29;2.63;;;1.38;;
13973;SDS011;7060;43.770;4.008;2022-08-25T11:31:02;4.25;;;1.40;;
13973;SDS011;7060;43.770;4.008;2022-08-25T11:33:32;4.72;;;1.83;;
13973;SDS011;7060;43.770;4.008;2022-08-25T11:36:02;2.42;;;1.60;;
13973;SDS011;7060;43.770;4.008;2022-08-25T11:38:41;1.80;;;1.65;;
13973;SDS011;7060;43.770;4.008;2022-08-25T11:41:22;2.33;;;1.58;;
13973;SDS011;7060;43.770;4.008;2022-08-25T11:44:00;2.80;;;1.70;;
13973;SDS011;7060;43.770;4.008;2022-08-25T11:46:50;3.00;;;1.88;;
13973;SDS011;7060;43.770;4.008;2022-08-25T11:49:43;2.92;;;1.90;;
13973;SDS011;7060;43.770;4.008;2022-08-25T11:52:40;2.20;;;1.70;;
13973;SDS011;7060;43.770;4.008;2022-08-25T11:55:17;3.50;;;1.77;;
13973;SDS011;7060;43.770;4.008;2022-08-25T11:57:50;3.08;;;2.10;;
13973;SDS011;7060;43.770;4.008;2022-08-25T12:00:37;2.92;;;2.10;;
13973;SDS011;7060;43.770;4.008;2022-08-25T12:06:16;3.83;;;1.83;;
13973;SDS011;7060;43.770;4.008;2022-08-25T12:08:50;2.70;;;2.13;;
13973;SDS011;7060;43.770;4.008;2022-08-25T12:11:41;2.05;;;1.80;;
13973;SDS011;7060;43.770;4.008;2022-08-25T12:14:37;5.85;;;1.85;;
13973;SDS011;7060;43.770;4.008;2022-08-25T12:17:18;3.45;;;1.70;;
13973;SDS011;7060;43.770;4.008;2022-08-25T12:19:53;7.63;;;1.90;;
13973;SDS011;7060;43.770;4.008;2022-08-25T12:22:41;5.78;;;1.83;;
13973;SDS011;7060;43.770;4.008;2022-08-25T12:25:29;1.50;;;1.30;;
13973;SDS011;7060;43.770;4.008;2022-08-25T12:28:05;3.10;;;1.50;;
13973;SDS011;7060;43.770;4.008;2022-08-25T12:30:45;2.40;;;1.60;;
13973;SDS011;7060;43.770;4.008;2022-08-25T12:33:24;2.95;;;1.42;;
13973;SDS011;7060;43.770;4.008;2022-08-25T12:36:03;2.80;;;1.83;;
13973;SDS011;7060;43.770;4.008;2022-08-25T12:38:41;3.13;;;1.65;;
13973;SDS011;7060;43.770;4.008;2022-08-25T12:41:20;1.73;;;1.20;;
13973;SDS011;7060;43.770;4.008;2022-08-25T12:43:51;4.00;;;1.52;;
13973;SDS011;7060;43.770;4.008;2022-08-25T12:49:11;3.17;;;1.30;;
13973;SDS011;7060;43.770;4.008;2022-08-25T12:51:58;2.22;;;1.58;;
13973;SDS011;7060;43.770;4.008;2022-08-25T12:54:37;2.22;;;2.03;;
13973;SDS011;7060;43.770;4.008;2022-08-25T13:00:12;2.55;;;1.55;;
13973;SDS011;7060;43.770;4.008;2022-08-25T13:09:12;8.30;;;2.00;;
13973;SDS011;7060;43.770;4.008;2022-08-25T13:12:04;6.65;;;1.77;;
13973;SDS011;7060;43.770;4.008;2022-08-25T13:14:42;1.70;;;1.35;;
13973;SDS011;7060;43.770;4.008;2022-08-25T13:17:23;2.85;;;1.50;;
13973;SDS011;7060;43.770;4.008;2022-08-25T13:20:10;4.60;;;1.50;;
13973;SDS011;7060;43.770;4.008;2022-08-25T13:22:42;2.38;;;1.45;;
13973;SDS011;7060;43.770;4.008;2022-08-25T13:25:15;2.20;;;1.60;;
13973;SDS011;7060;43.770;4.008;2022-08-25T13:27:58;1.88;;;1.58;;
13973;SDS011;7060;43.770;4.008;2022-08-25T13:30:30;2.05;;;1.85;;
13973;SDS011;7060;43.770;4.008;2022-08-25T13:33:14;3.28;;;1.67;;
13973;SDS011;7060;43.770;4.008;2022-08-25T13:35:46;6.82;;;2.20;;
13973;SDS011;7060;43.770;4.008;2022-08-25T13:38:18;2.25;;;1.60;;
13973;SDS011;7060;43.770;4.008;2022-08-25T13:40:45;2.22;;;1.70;;
13973;SDS011;7060;43.770;4.008;2022-08-25T13:43:14;3.75;;;1.75;;
13973;SDS011;7060;43.770;4.008;2022-08-25T13:45:44;3.53;;;1.85;;
13973;SDS011;7060;43.770;4.008;2022-08-25T13:48:31;2.30;;;1.90;;
13973;SDS011;7060;43.770;4.008;2022-08-25T13:51:05;2.88;;;1.80;;
13973;SDS011;7060;43.770;4.008;2022-08-25T13:53:48;2.42;;;1.67;;
13973;SDS011;7060;43.770;4.008;2022-08-25T13:56:29;2.83;;;1.90;;
13973;SDS011;7060;43.770;4.008;2022-08-25T13:59:16;2.25;;;1.55;;
13973;SDS011;7060;43.770;4.008;2022-08-25T14:01:51;3.03;;;1.70;;
13973;SDS011;7060;43.770;4.008;2022-08-25T14:04:27;3.13;;;1.80;;
13973;SDS011;7060;43.770;4.008;2022-08-25T14:07:10;2.25;;;1.70;;
13973;SDS011;7060;43.770;4.008;2022-08-25T14:10:01;2.20;;;2.00;;
13973;SDS011;7060;43.770;4.008;2022-08-25T14:12:35;3.00;;;2.10;;
13973;SDS011;7060;43.770;4.008;2022-08-25T14:15:08;2.80;;;2.22;;
13973;SDS011;7060;43.770;4.008;2022-08-25T14:17:42;2.33;;;1.83;;
13973;SDS011;7060;43.770;4.008;2022-08-25T14:20:18;2.80;;;1.88;;
13973;SDS011;7060;43.770;4.008;2022-08-25T14:22:53;4.10;;;1.52;;
13973;SDS011;7060;43.770;4.008;2022-08-25T14:25:25;5.93;;;1.80;;
13973;SDS011;7060;43.770;4.008;2022-08-25T14:27:56;2.53;;;1.75;;
13973;SDS011;7060;43.770;4.008;2022-08-25T14:30:48;5.57;;;2.20;;
13973;SDS011;7060;43.770;4.008;2022-08-25T14:33:20;5.53;;;2.00;;
13973;SDS011;7060;43.770;4.008;2022-08-25T14:35:52;4.70;;;1.90;;
13973;SDS011;7060;43.770;4.008;2022-08-25T14:38:21;2.03;;;1.70;;
13973;SDS011;7060;43.770;4.008;2022-08-25T14:40:50;2.50;;;1.70;;
13973;SDS011;7060;43.770;4.008;2022-08-25T14:43:19;10.30;;;2.30;;
13973;SDS011;7060;43.770;4.008;2022-08-25T14:45:56;2.03;;;1.50;;
13973;SDS011;7060;43.770;4.008;2022-08-25T14:48:28;2.67;;;1.90;;
13973;SDS011;7060;43.770;4.008;2022-08-25T14:51:02;5.25;;;3.58;;
13973;SDS011;7060;43.770;4.008;2022-08-25T14:53:30;3.45;;;3.08;;
13973;SDS011;7060;43.770;4.008;2022-08-25T14:55:59;6.88;;;2.10;;
13973;SDS011;7060;43.770;4.008;2022-08-25T14:58:34;1.52;;;1.42;;
13973;SDS011;7060;43.770;4.008;2022-08-25T15:01:20;3.72;;;1.80;;
13973;SDS011;7060;43.770;4.008;2022-08-25T15:03:58;3.53;;;1.90;;
13973;SDS011;7060;43.770;4.008;2022-08-25T15:06:30;4.97;;;1.98;;
13973;SDS011;7060;43.770;4.008;2022-08-25T15:09:00;2.08;;;1.60;;
13973;SDS011;7060;43.770;4.008;2022-08-25T15:11:38;1.80;;;1.48;;
13973;SDS011;7060;43.770;4.008;2022-08-25T15:14:09;5.05;;;1.90;;
13973;SDS011;7060;43.770;4.008;2022-08-25T15:16:41;4.78;;;1.45;;
13973;SDS011;7060;43.770;4.008;2022-08-25T15:19:14;2.72;;;1.73;;
13973;SDS011;7060;43.770;4.008;2022-08-25T15:21:45;3.10;;;1.67;;
13973;SDS011;7060;43.770;4.008;2022-08-25T15:24:15;4.63;;;1.60;;
13973;SDS011;7060;43.770;4.008;2022-08-25T15:26:46;10.38;;;1.65;;
13973;SDS011;7060;43.770;4.008;2022-08-25T15:29:22;3.38;;;1.85;;
13973;SDS011;7060;43.770;4.008;2022-08-25T15:31:52;4.78;;;1.60;;
13973;SDS011;7060;43.770;4.008;2022-08-25T15:34:22;6.13;;;1.58;;
13973;SDS011;7060;43.770;4.008;2022-08-25T15:36:51;2.00;;;1.45;;
13973;SDS011;7060;43.770;4.008;2022-08-25T15:39:19;2.28;;;1.30;;
13973;SDS011;7060;43.770;4.008;2022-08-25T15:41:47;3.95;;;1.70;;
13973;SDS011;7060;43.770;4.008;2022-08-25T15:44:18;4.57;;;1.63;;
13973;SDS011;7060;43.770;4.008;2022-08-25T15:46:51;2.50;;;1.65;;
13973;SDS011;7060;43.770;4.008;2022-08-25T15:49:23;2.97;;;1.65;;
13973;SDS011;7060;43.770;4.008;2022-08-25T15:51:55;2.38;;;1.42;;
13973;SDS011;7060;43.770;4.008;2022-08-25T15:54:24;3.15;;;1.45;;
13973;SDS011;7060;43.770;4.008;2022-08-25T15:56:56;2.50;;;1.70;;